Sierra Blanca Regional Airport Ruidoso US
ICAO: KSRR
IATA: SRR
Category: Medium
Scheduled Services: No

Elevation: 6814 ft
TransAlt. 18000 ft.

Airport Communications:
AWOS 3:126.475
ALBUQUERQUE CNTR:132.65
ALBUQUERQUE RDO:122.25
CTAF/UNICOM:122.8

KSRR Zoom In..

If you have problems with the map follow the link
https://www.worldairports.se/pages/airport.php?
ICAO=KSRR

Runways:

(A) RW 06 length 8120 ft width 100 ft
---- / hdg 61

(B) RW 12 length 6309 ft width 75 ft
---- / hdg 122

(C) RW 24 length 8120 ft width 100 ft
ILS 110.70 / hdg 241

(D) RW 30 length 6309 ft width 75 ft
---- / hdg 302

Location; KSRR
Day. 16 / Time. 02.15 Zulu
* Altimeter: 29.83
* Temperature: 08° c. 46.4°f.
* Wind from: 240° Speed 25 kn with Gusts up to 37 kn.
Dewpoint: -07° c.
Visibility: 10 Statute Miles.
Clouds: Clear (automated report).

KSRR 160215Z AUTO 24025G37KT 10SM CLR 08/M07 A2983 RMK AO2


Wind From 240°
Speed 25 kn.

 
 
jpsmedia worldairports.se 2019   terms of use